Time,TemperatureF,DewpointF,PressureIn,WindDirection,WindDirectionDegrees,WindSpeedMPH,WindSpeedGustMPH,Humidity,HourlyPrecipIn,Conditions,Clouds,dailyrainin,SoftwareType,DateUTC
2013-02-28 00:01:00,77.0,76.0,29.21,WNW,286,1.0,2.0,98,0.00,,,0.00,,2013-02-27 22:01:00,
2013-02-28 00:11:00,77.0,76.0,29.21,WNW,286,1.0,2.0,98,0.00,,,0.00,,2013-02-27 22:11:00,
2013-02-28 00:21:00,78.0,77.0,29.21,North,0,1.0,2.0,98,0.00,,,0.00,,2013-02-27 22:21:00,
2013-02-28 00:31:00,77.0,76.0,29.21,NW,326,2.0,2.0,98,0.00,,,0.00,,2013-02-27 22:31:00,
2013-02-28 00:41:00,77.0,76.0,29.21,NW,326,2.0,2.0,98,0.00,,,0.00,,2013-02-27 22:41:00,
2013-02-28 00:51:00,76.0,75.0,29.21,NW,315,2.0,3.0,98,0.00,,,0.00,,2013-02-27 22:51:00,
2013-02-28 01:01:00,76.0,75.0,29.21,WNW,299,3.0,5.0,98,0.00,,,0.00,,2013-02-27 23:01:00,
2013-02-28 01:11:00,76.0,75.0,29.21,WNW,299,3.0,5.0,98,0.00,,,0.00,,2013-02-27 23:11:00,
2013-02-28 01:21:00,77.0,76.0,29.21,West,277,3.0,6.0,98,0.00,,,0.00,,2013-02-27 23:21:00,
2013-02-28 01:31:00,76.0,75.0,29.21,West,270,2.0,5.0,98,0.00,,,0.00,,2013-02-27 23:31:00,
2013-02-28 01:41:00,76.0,75.0,29.21,West,270,2.0,5.0,98,0.00,,,0.00,,2013-02-27 23:41:00,
2013-02-28 01:52:00,75.0,74.0,29.21,North,353,2.0,3.0,98,0.00,,,0.00,,2013-02-27 23:52:00,
2013-02-28 02:01:00,75.0,74.0,29.20,North,0,0.0,2.0,98,0.00,,,0.00,,2013-02-28 00:01:00,
2013-02-28 02:11:00,75.0,74.0,29.20,North,0,0.0,2.0,98,0.00,,,0.00,,2013-02-28 00:11:00,
2013-02-28 02:21:00,74.0,73.0,29.20,North,0,1.0,2.0,98,0.00,,,0.00,,2013-02-28 00:21:00,
2013-02-28 02:31:00,74.0,73.0,29.21,North,0,0.0,2.0,98,0.00,,,0.00,,2013-02-28 00:31:00,
2013-02-28 02:42:00,74.0,73.0,29.21,North,0,0.0,2.0,98,0.00,,,0.00,,2013-02-28 00:42:00,
2013-02-28 02:51:00,74.0,73.0,29.21,North,0,1.0,2.0,98,0.00,,,0.00,,2013-02-28 00:51:00,
2013-02-28 03:01:00,73.0,72.0,29.21,WSW,248,1.0,2.0,98,0.00,,,0.00,,2013-02-28 01:01:00,
2013-02-28 03:11:00,73.0,72.0,29.21,WSW,248,1.0,2.0,98,0.00,,,0.00,,2013-02-28 01:11:00,
2013-02-28 03:21:00,74.0,73.0,29.21,West,265,2.0,3.0,98,0.00,,,0.00,,2013-02-28 01:21:00,
2013-02-28 03:31:00,75.0,74.0,29.21,SSW,212,2.0,2.0,98,0.00,,,0.00,,2013-02-28 01:31:00,
2013-02-28 03:41:00,75.0,74.0,29.21,SSW,212,2.0,2.0,98,0.00,,,0.00,,2013-02-28 01:41:00,
2013-02-28 03:51:00,78.0,77.0,29.22,SSW,202,3.0,7.0,98,0.00,,,0.00,,2013-02-28 01:51:00,
2013-02-28 04:01:00,77.0,76.0,29.23,SW,230,6.0,9.0,98,0.00,,,0.00,,2013-02-28 02:01:00,
2013-02-28 04:11:00,77.0,76.0,29.23,SW,230,6.0,9.0,98,0.00,,,0.00,,2013-02-28 02:11:00,
2013-02-28 04:21:00,76.0,75.0,29.24,SSW,202,9.0,17.0,98,0.00,,,0.00,,2013-02-28 02:21:00,
2013-02-28 04:31:00,73.0,72.0,29.25,SSW,204,10.0,17.0,98,0.00,,,0.00,,2013-02-28 02:31:00,
2013-02-28 04:41:00,73.0,72.0,29.25,SSW,204,10.0,17.0,98,0.00,,,0.00,,2013-02-28 02:41:00,
2013-02-28 04:51:00,73.0,72.0,29.25,SSW,204,10.0,17.0,98,0.00,,,0.00,,2013-02-28 02:51:00,
2013-02-28 05:01:00,71.0,70.0,29.27,WSW,246,10.0,17.0,98,0.00,,,0.00,,2013-02-28 03:01:00,
2013-02-28 05:11:00,71.0,70.0,29.27,WSW,246,10.0,17.0,98,0.00,,,0.00,,2013-02-28 03:11:00,
2013-02-28 05:21:00,71.0,70.0,29.27,West,267,12.0,16.0,98,0.00,,,0.00,,2013-02-28 03:21:00,
2013-02-28 05:31:00,70.0,69.0,29.27,WNW,296,10.0,20.0,98,0.00,,,0.00,,2013-02-28 03:31:00,
2013-02-28 05:41:00,70.0,69.0,29.27,WNW,296,10.0,20.0,98,0.00,,,0.00,,2013-02-28 03:41:00,
2013-02-28 05:51:00,70.0,69.0,29.28,WSW,251,9.0,16.0,98,0.02,,,0.02,,2013-02-28 03:51:00,
2013-02-28 06:01:00,70.0,69.0,29.29,South,181,12.0,17.0,98,0.10,,,0.10,,2013-02-28 04:01:00,
2013-02-28 06:11:00,70.0,69.0,29.29,South,181,12.0,17.0,98,0.10,,,0.10,,2013-02-28 04:11:00,
2013-02-28 06:21:00,70.0,69.0,29.30,WSW,237,9.0,17.0,98,0.12,,,0.12,,2013-02-28 04:21:00,
2013-02-28 06:31:00,69.0,68.0,29.31,South,183,10.0,16.0,98,0.17,,,0.17,,2013-02-28 04:31:00,
2013-02-28 06:41:00,69.0,68.0,29.31,South,183,10.0,16.0,98,0.17,,,0.17,,2013-02-28 04:41:00,
2013-02-28 06:51:00,69.0,68.0,29.32,SW,224,7.0,16.0,98,0.22,,,0.24,,2013-02-28 04:51:00,
2013-02-28 07:01:00,70.0,69.0,29.33,South,186,7.0,13.0,98,0.15,,,0.25,,2013-02-28 05:01:00,
2013-02-28 07:11:00,70.0,69.0,29.33,South,186,7.0,13.0,98,0.15,,,0.25,,2013-02-28 05:11:00,
2013-02-28 07:22:00,69.0,68.0,29.34,SE,127,8.0,17.0,98,0.16,,,0.28,,2013-02-28 05:22:00,
2013-02-28 07:31:00,70.0,69.0,29.36,SSW,209,7.0,13.0,98,0.12,,,0.29,,2013-02-28 05:31:00,
2013-02-28 07:42:00,70.0,69.0,29.36,SSW,209,7.0,13.0,98,0.12,,,0.29,,2013-02-28 05:42:00,
2013-02-28 07:51:00,69.0,68.0,29.36,SSW,196,9.0,13.0,98,0.11,,,0.35,,2013-02-28 05:51:00,
2013-02-28 08:01:00,69.0,68.0,29.37,South,170,8.0,14.0,98,0.12,,,0.37,,2013-02-28 06:01:00,
2013-02-28 08:11:00,69.0,68.0,29.37,South,170,8.0,14.0,98,0.12,,,0.37,,2013-02-28 06:11:00,
2013-02-28 08:21:00,68.0,67.0,29.38,SSW,202,7.0,17.0,98,0.09,,,0.37,,2013-02-28 06:21:00,
2013-02-28 08:32:00,68.0,67.0,29.39,SW,216,6.0,17.0,98,0.08,,,0.37,,2013-02-28 06:32:00,
2013-02-28 08:41:00,68.0,67.0,29.39,SW,216,6.0,17.0,98,0.08,,,0.37,,2013-02-28 06:41:00,
2013-02-28 08:51:00,67.0,66.0,29.40,South,188,8.0,15.0,98,0.03,,,0.38,,2013-02-28 06:51:00,
2013-02-28 09:01:00,69.0,68.0,29.41,South,180,5.0,10.0,98,0.01,,,0.38,,2013-02-28 07:01:00,
2013-02-28 09:11:00,69.0,68.0,29.41,South,180,5.0,10.0,98,0.01,,,0.38,,2013-02-28 07:11:00,
2013-02-28 09:21:00,69.0,68.0,29.41,West,259,7.0,10.0,98,0.04,,,0.41,,2013-02-28 07:21:00,
2013-02-28 09:31:00,69.0,68.0,29.42,West,266,7.0,12.0,98,0.04,,,0.41,,2013-02-28 07:31:00,
2013-02-28 09:41:00,69.0,68.0,29.42,West,266,7.0,12.0,98,0.04,,,0.41,,2013-02-28 07:41:00,
2013-02-28 09:51:00,71.0,70.0,29.42,WSW,248,6.0,13.0,98,0.04,,,0.42,,2013-02-28 07:51:00,
2013-02-28 10:01:00,70.0,69.0,29.44,WSW,256,7.0,10.0,98,0.04,,,0.42,,2013-02-28 08:01:00,
2013-02-28 10:11:00,70.0,69.0,29.44,WSW,256,7.0,10.0,98,0.04,,,0.42,,2013-02-28 08:11:00,
2013-02-28 10:21:00,70.0,69.0,29.44,SW,236,6.0,13.0,98,0.01,,,0.42,,2013-02-28 08:21:00,
2013-02-28 10:31:00,72.0,72.0,29.44,SW,235,5.0,14.0,100,0.01,,,0.42,,2013-02-28 08:31:00,
2013-02-28 10:41:00,72.0,72.0,29.44,SW,235,5.0,14.0,100,0.01,,,0.42,,2013-02-28 08:41:00,
2013-02-28 10:52:00,71.0,71.0,29.45,SSW,201,5.0,8.0,100,0.00,,,0.42,,2013-02-28 08:52:00,
2013-02-28 11:03:00,72.0,72.0,29.46,SW,230,6.0,9.0,100,0.00,,,0.42,,2013-02-28 09:03:00,
2013-02-28 11:11:00,72.0,72.0,29.46,SW,230,6.0,9.0,100,0.00,,,0.42,,2013-02-28 09:11:00,
2013-02-28 11:21:00,74.0,74.0,29.47,South,175,5.0,10.0,100,0.00,,,0.42,,2013-02-28 09:21:00,
2013-02-28 11:31:00,72.0,72.0,29.47,SSW,213,8.0,10.0,100,0.00,,,0.42,,2013-02-28 09:31:00,
2013-02-28 11:41:00,72.0,72.0,29.47,SSW,213,8.0,10.0,100,0.00,,,0.42,,2013-02-28 09:41:00,
2013-02-28 11:52:00,73.0,73.0,29.48,South,178,7.0,10.0,100,0.00,,,0.42,,2013-02-28 09:52:00,
2013-02-28 12:01:00,74.0,74.0,29.48,SSE,161,9.0,14.0,100,0.00,,,0.42,,2013-02-28 10:01:00,
2013-02-28 12:11:00,74.0,74.0,29.49,SSW,195,8.0,12.0,100,0.00,,,0.42,,2013-02-28 10:11:00,
2013-02-28 12:21:00,74.0,74.0,29.49,SSW,195,8.0,12.0,100,0.00,,,0.42,,2013-02-28 10:21:00,
2013-02-28 12:31:00,75.0,75.0,29.49,SSE,161,6.0,13.0,100,0.00,,,0.42,,2013-02-28 10:31:00,
2013-02-28 12:41:00,75.0,75.0,29.49,SSE,161,6.0,13.0,100,0.00,,,0.42,,2013-02-28 10:41:00,
2013-02-28 12:51:00,74.0,74.0,29.49,SSW,202,6.0,12.0,100,0.00,,,0.42,,2013-02-28 10:51:00,
2013-02-28 13:01:00,76.0,76.0,29.49,SSE,168,6.0,10.0,100,0.00,,,0.42,,2013-02-28 11:01:00,
2013-02-28 13:11:00,76.0,76.0,29.49,SSE,168,6.0,10.0,100,0.00,,,0.42,,2013-02-28 11:11:00,
2013-02-28 13:21:00,75.0,75.0,29.49,SSW,199,5.0,10.0,100,0.00,,,0.42,,2013-02-28 11:21:00,
2013-02-28 13:31:00,76.0,76.0,29.49,South,183,5.0,9.0,100,0.00,,,0.42,,2013-02-28 11:31:00,
2013-02-28 13:41:00,76.0,76.0,29.49,South,183,5.0,9.0,100,0.00,,,0.42,,2013-02-28 11:41:00,
2013-02-28 13:52:00,77.0,77.0,29.49,South,180,7.0,10.0,100,0.00,,,0.42,,2013-02-28 11:52:00,
2013-02-28 14:01:00,76.0,76.0,29.49,South,180,7.0,12.0,100,0.00,,,0.42,,2013-02-28 12:01:00,
2013-02-28 14:11:00,76.0,76.0,29.49,South,180,7.0,12.0,100,0.00,,,0.42,,2013-02-28 12:11:00,
2013-02-28 14:21:00,74.0,74.0,29.49,South,186,5.0,14.0,100,0.00,,,0.42,,2013-02-28 12:21:00,
2013-02-28 14:31:00,76.0,76.0,29.49,SSW,196,9.0,10.0,100,0.00,,,0.42,,2013-02-28 12:31:00,
2013-02-28 14:42:00,76.0,76.0,29.49,SSW,196,9.0,10.0,100,0.00,,,0.42,,2013-02-28 12:42:00,
2013-02-28 14:52:00,76.0,76.0,29.49,SSE,165,8.0,10.0,100,0.00,,,0.42,,2013-02-28 12:52:00,
2013-02-28 15:01:00,77.0,77.0,29.49,South,180,6.0,10.0,100,0.00,,,0.42,,2013-02-28 13:01:00,
2013-02-28 15:11:00,76.0,76.0,29.49,SW,216,7.0,10.0,100,0.00,,,0.42,,2013-02-28 13:11:00,
2013-02-28 15:21:00,76.0,76.0,29.49,SW,216,7.0,10.0,100,0.00,,,0.42,,2013-02-28 13:21:00,
2013-02-28 15:32:00,77.0,77.0,29.48,South,169,5.0,9.0,100,0.00,,,0.42,,2013-02-28 13:32:00,
2013-02-28 15:41:00,77.0,77.0,29.48,South,169,5.0,9.0,100,0.00,,,0.42,,2013-02-28 13:41:00,
2013-02-28 15:51:00,76.0,76.0,29.48,SSW,202,5.0,9.0,100,0.00,,,0.42,,2013-02-28 13:51:00,
2013-02-28 16:01:00,77.0,77.0,29.47,SSE,149,7.0,10.0,100,0.00,,,0.42,,2013-02-28 14:01:00,
2013-02-28 16:11:00,78.0,78.0,29.47,SSW,200,6.0,10.0,100,0.00,,,0.42,,2013-02-28 14:11:00,
2013-02-28 16:21:00,78.0,78.0,29.47,SSW,200,6.0,10.0,100,0.00,,,0.42,,2013-02-28 14:21:00,
2013-02-28 16:31:00,77.0,77.0,29.47,South,172,6.0,9.0,100,0.00,,,0.42,,2013-02-28 14:31:00,
2013-02-28 16:41:00,76.0,76.0,29.47,SSE,154,7.0,10.0,100,0.00,,,0.42,,2013-02-28 14:41:00,
2013-02-28 16:52:00,76.0,76.0,29.47,SSE,154,7.0,10.0,100,0.00,,,0.42,,2013-02-28 14:52:00,
2013-02-28 17:02:00,76.0,76.0,29.47,South,170,6.0,10.0,100,0.00,,,0.42,,2013-02-28 15:02:00,
2013-02-28 17:11:00,76.0,76.0,29.48,South,191,5.0,7.0,100,0.00,,,0.42,,2013-02-28 15:11:00,
2013-02-28 17:21:00,76.0,76.0,29.48,South,191,5.0,7.0,100,0.00,,,0.42,,2013-02-28 15:21:00,
2013-02-28 17:32:00,76.0,76.0,29.48,SSE,152,4.0,9.0,100,0.00,,,0.42,,2013-02-28 15:32:00,
2013-02-28 17:41:00,76.0,76.0,29.48,SSE,152,4.0,9.0,100,0.00,,,0.42,,2013-02-28 15:41:00,
2013-02-28 17:51:00,75.0,75.0,29.48,SSE,162,5.0,9.0,100,0.00,,,0.42,,2013-02-28 15:51:00,
2013-02-28 18:01:00,75.0,75.0,29.48,SSE,158,5.0,8.0,100,0.00,,,0.42,,2013-02-28 16:01:00,
2013-02-28 18:11:00,75.0,75.0,29.48,South,172,4.0,8.0,100,0.00,,,0.42,,2013-02-28 16:11:00,
2013-02-28 18:21:00,75.0,75.0,29.48,South,172,4.0,8.0,100,0.00,,,0.42,,2013-02-28 16:21:00,
2013-02-28 18:31:00,76.0,76.0,29.49,South,188,4.0,9.0,100,0.00,,,0.42,,2013-02-28 16:31:00,
2013-02-28 18:41:00,76.0,76.0,29.49,South,188,4.0,9.0,100,0.00,,,0.42,,2013-02-28 16:41:00,
2013-02-28 18:52:00,75.0,75.0,29.49,South,191,5.0,8.0,100,0.00,,,0.42,,2013-02-28 16:52:00,
2013-02-28 19:01:00,75.0,75.0,29.50,South,186,5.0,8.0,100,0.00,,,0.42,,2013-02-28 17:01:00,
2013-02-28 19:11:00,74.0,74.0,29.50,SSW,199,5.0,7.0,100,0.00,,,0.42,,2013-02-28 17:11:00,
2013-02-28 19:21:00,74.0,74.0,29.50,SSW,199,5.0,7.0,100,0.00,,,0.42,,2013-02-28 17:21:00,
2013-02-28 19:32:00,74.0,74.0,29.50,South,180,5.0,6.0,100,0.00,,,0.42,,2013-02-28 17:32:00,
2013-02-28 19:41:00,74.0,74.0,29.50,South,180,5.0,6.0,100,0.00,,,0.42,,2013-02-28 17:41:00,
2013-02-28 19:52:00,74.0,74.0,29.50,SSW,201,6.0,7.0,100,0.00,,,0.42,,2013-02-28 17:52:00,
2013-02-28 20:01:00,74.0,74.0,29.51,South,180,5.0,6.0,100,0.00,,,0.42,,2013-02-28 18:01:00,
2013-02-28 20:11:00,74.0,74.0,29.51,South,170,6.0,7.0,100,0.00,,,0.42,,2013-02-28 18:11:00,
2013-02-28 20:21:00,74.0,74.0,29.51,South,170,6.0,7.0,100,0.00,,,0.42,,2013-02-28 18:21:00,
2013-02-28 20:31:00,74.0,74.0,29.52,South,171,5.0,6.0,100,0.00,,,0.42,,2013-02-28 18:31:00,
2013-02-28 20:41:00,74.0,74.0,29.52,SSE,162,3.0,7.0,100,0.00,,,0.42,,2013-02-28 18:41:00,
2013-02-28 20:52:00,74.0,74.0,29.52,SSE,162,3.0,7.0,100,0.00,,,0.42,,2013-02-28 18:52:00,
2013-02-28 21:01:00,73.0,73.0,29.53,East,101,2.0,5.0,100,0.00,,,0.42,,2013-02-28 19:01:00,
2013-02-28 21:11:00,73.0,63.0,29.54,NNE,21,3.0,6.0,72,0.00,,,0.42,,2013-02-28 19:11:00,
2013-02-28 21:21:00,73.0,63.0,29.54,NNE,21,3.0,6.0,72,0.00,,,0.42,,2013-02-28 19:21:00,
2013-02-28 21:31:00,73.0,72.0,29.54,North,0,3.0,3.0,98,0.00,,,0.42,,2013-02-28 19:31:00,
2013-02-28 21:41:00,73.0,72.0,29.54,North,0,3.0,3.0,98,0.00,,,0.42,,2013-02-28 19:41:00,
2013-02-28 21:51:00,71.0,70.0,29.55,North,0,2.0,5.0,98,0.00,,,0.42,,2013-02-28 19:51:00,
2013-02-28 22:01:00,70.0,69.0,29.55,North,6,3.0,3.0,98,0.00,,,0.42,,2013-02-28 20:01:00,
2013-02-28 22:11:00,70.0,69.0,29.55,North,6,3.0,3.0,98,0.00,,,0.42,,2013-02-28 20:11:00,
2013-02-28 22:21:00,70.0,69.0,29.54,North,0,2.0,6.0,98,0.00,,,0.42,,2013-02-28 20:21:00,
2013-02-28 22:31:00,70.0,69.0,29.54,North,8,3.0,5.0,98,0.00,,,0.42,,2013-02-28 20:31:00,
2013-02-28 22:41:00,70.0,69.0,29.54,North,8,3.0,5.0,98,0.00,,,0.42,,2013-02-28 20:41:00,
2013-02-28 22:52:00,70.0,69.0,29.54,North,0,2.0,5.0,98,0.00,,,0.42,,2013-02-28 20:52:00,
2013-02-28 23:01:00,68.0,67.0,29.55,North,0,1.0,2.0,98,0.00,,,0.42,,2013-02-28 21:01:00,
2013-02-28 23:11:00,68.0,67.0,29.55,North,0,1.0,2.0,98,0.00,,,0.42,,2013-02-28 21:11:00,
2013-02-28 23:22:00,70.0,69.0,29.55,North,0,3.0,3.0,98,0.00,,,0.42,,2013-02-28 21:22:00,
2013-02-28 23:31:00,69.0,68.0,29.55,North,0,2.0,3.0,98,0.00,,,0.42,,2013-02-28 21:31:00,
2013-02-28 23:41:00,69.0,68.0,29.55,North,0,2.0,3.0,98,0.00,,,0.42,,2013-02-28 21:41:00,
2013-02-28 23:51:00,69.0,68.0,29.56,North,0,2.0,2.0,98,0.00,,,0.42,,2013-02-28 21:51:00,